Espace membre
Imprimable
Durbuy, 01/07/2018, BEL - Lampiris Ardennes Nature Trail
Liste des rapports > 27.5 km - Classement
Recherche: Page: [1]
23 Entrées
 
Les réclamations ne sont plus acceptées, les résultats sont considérés comme définitifs.
RangNrNomAgeIOCEquipeTempsTkmMoy.ScrLocalité
1.160THOMIS Olivier36BEL2:45:296:08 9.799HEIST OP DEN BERG
2.183DEWEL Koen36BEL2:47:386:13 9.6614AARSCHOT
3.105LHEUREUX François37BEL2:48:366:15 9.6118BUVRINNES
4.171BASSELIER Nicolas35BEL2:48:416:15 9.6019BUVRINNES
5.192OTTEN Joël36BEL2:50:566:20 9.4823ESNEUX
6.161DAALMAN Koen37BEL2:51:306:22 9.4524NIEUWKERKEN-WAAS
7.184MEYNCKENS Peter36BEL2:55:236:30 9.2431LANGDORP
8.125SCHWAGTEN Siegfried35BELEAW_ING2:56:486:33 9.1635ANTWERPEN
9.114BETZEL Peter36DEU2:57:206:35 9.1437IXELLES
10.108MOENS Niki39BEL3:01:486:44 8.9143AALST
11.52KOOYMANS Teun36NLD3:05:486:53 8.7246ROOSENDAAL
12.155JERONNE Yannick35BEL3:08:176:59 8.6051PONT-À-CELLES
13.188VAERNEWYCK Thierry38BEL3:09:327:02 8.5553BAELEN
14.200TEEUWS Toon38BEL3:10:307:04 8.5055ZWIJNDRECHT
15.57VANAGTMAEL Tom39BEL3:13:027:09 8.3960ESSEN
16.156NICK Vranken36BEL3:17:117:19 8.2264BEERZEL
17.201VAES Bert36BEL3:20:477:27 8.0768HASSELT
18.122KONINGS Gert39BEL3:24:597:36 7.9070EKEREN
19.181DE MAN Gio36BEL3:42:508:16 7.2785AS
20.185COCQUYT Ides39BEL3:50:108:32 7.0488DENDERMONDE
21.112DEPIENNE Michael38BEL3:54:118:41 6.9292POUSSET
22.102GOVAERT Billy38BEL4:04:349:04 6.6296WACHTEBEKE
23.1300VERMEIREN Lars39BEL5:13:2711:37 5.17100WIJNEGEM
DNF: abandon; DSQ: disqualifié; Vitesse en km/h
Page: [1]